Time;durP1;ratioP1;P1;durP2;ratioP2;P2;SDS_P1;SDS_P2;PMS_P1;PMS_P2;Temp;Humidity;BMP_temperature;BMP_pressure;BME280_temperature;BME280_humidity;BME280_pressure;Samples;Min_cycle;Max_cycle;Signal;HPM_P1;HPM_P2
2023/09/15 00:00:17;;;;;;;;;;;20.60;62.60;;;;;;5070864;28;20209;-73
2023/09/15 00:02:43;;;;;;;;;;;20.50;62.60;;;;;;5070919;28;19951;-73
2023/09/15 00:05:10;;;;;;;;;;;20.50;62.60;;;;;;5072063;28;19920;-73
2023/09/15 00:07:36;;;;;;;;;;;20.50;62.60;;;;;;5070844;28;19920;-73
2023/09/15 00:10:03;;;;;;;;;;;20.50;62.60;;;;;;5071128;28;19920;-73
2023/09/15 00:12:28;;;;;;;;;;;20.50;62.60;;;;;;5071003;28;19924;-73
2023/09/15 00:14:54;;;;;;;;;;;20.60;62.70;;;;;;5070992;28;19920;-73
2023/09/15 00:17:19;;;;;;;;;;;20.50;62.70;;;;;;5071961;28;19956;-73
2023/09/15 00:19:46;;;;;;;;;;;20.50;62.70;;;;;;5070604;28;20283;-73
2023/09/15 00:22:11;;;;;;;;;;;20.50;62.60;;;;;;5070657;28;19925;-73
2023/09/15 00:24:36;;;;;;;;;;;20.50;62.70;;;;;;5071837;28;19931;-73
2023/09/15 00:27:02;;;;;;;;;;;20.50;62.70;;;;;;5070877;28;19931;-73
2023/09/15 00:29:27;;;;;;;;;;;20.50;62.70;;;;;;5070611;28;20468;-73
2023/09/15 00:31:55;;;;;;;;;;;20.50;62.60;;;;;;5070844;28;19920;-73
2023/09/15 00:34:20;;;;;;;;;;;20.50;62.60;;;;;;5070484;28;20296;-73
2023/09/15 00:36:46;;;;;;;;;;;20.50;62.60;;;;;;5070898;28;19921;-73
2023/09/15 00:39:12;;;;;;;;;;;20.50;62.70;;;;;;5070382;28;19929;-73
2023/09/15 00:41:37;;;;;;;;;;;20.50;62.60;;;;;;5070510;28;19929;-73
2023/09/15 00:44:03;;;;;;;;;;;20.40;62.50;;;;;;5070130;28;20018;-72
2023/09/15 00:46:30;;;;;;;;;;;20.40;62.50;;;;;;5070731;28;19927;-73
2023/09/15 00:48:57;;;;;;;;;;;20.40;62.50;;;;;;5070394;28;20120;-73
2023/09/15 00:51:23;;;;;;;;;;;20.40;62.50;;;;;;5073015;28;19974;-73
2023/09/15 00:53:48;;;;;;;;;;;20.40;62.50;;;;;;5074231;28;19927;-73
2023/09/15 00:56:14;;;;;;;;;;;20.40;62.50;;;;;;5073984;28;20375;-73
2023/09/15 00:58:40;;;;;;;;;;;20.40;62.50;;;;;;5074235;28;19928;-73
2023/09/15 01:01:06;;;;;;;;;;;20.40;62.50;;;;;;5074122;28;19929;-73
2023/09/15 01:03:34;;;;;;;;;;;20.40;62.50;;;;;;5073739;28;19924;-73
2023/09/15 01:05:59;;;;;;;;;;;20.40;62.50;;;;;;5075447;28;19920;-73
2023/09/15 01:08:25;;;;;;;;;;;20.40;62.50;;;;;;5074045;28;19920;-73
2023/09/15 01:10:50;;;;;;;;;;;20.30;62.50;;;;;;5075090;28;20260;-73
2023/09/15 01:13:16;;;;;;;;;;;20.30;62.40;;;;;;5073691;28;20013;-73
2023/09/15 01:15:46;;;;;;;;;;;20.40;62.50;;;;;;5074809;28;19932;-73
2023/09/15 01:18:19;;;;;;;;;;;20.30;62.40;;;;;;5073541;28;19924;-74
2023/09/15 01:21:05;;;;;;;;;;;20.30;62.40;;;;;;5074733;28;20454;-73
2023/09/15 01:26:34;;;;;;;;;;;20.30;62.40;;;;;;5130661;27;20434;-73
2023/09/15 01:29:05;;;;;;;;;;;20.30;62.40;;;;;;5129532;28;20039;-73
2023/09/15 01:31:30;;;;;;;;;;;20.30;62.40;;;;;;5129688;28;20282;-73
2023/09/15 01:33:56;;;;;;;;;;;20.30;62.40;;;;;;5129375;28;19923;-73
2023/09/15 01:36:22;;;;;;;;;;;20.30;62.40;;;;;;5129610;28;19920;-73
2023/09/15 01:38:47;;;;;;;;;;;20.30;62.40;;;;;;5129411;28;19919;-73
2023/09/15 01:41:13;;;;;;;;;;;20.30;62.40;;;;;;5129492;28;20260;-72
2023/09/15 01:43:38;;;;;;;;;;;20.30;62.40;;;;;;5129122;28;19920;-72
2023/09/15 01:46:04;;;;;;;;;;;20.30;62.40;;;;;;5129059;28;19988;-72
2023/09/15 01:48:30;;;;;;;;;;;20.30;62.40;;;;;;5129457;28;20320;-73
2023/09/15 01:50:56;;;;;;;;;;;20.30;62.40;;;;;;5130306;27;19920;-73
2023/09/15 01:53:22;;;;;;;;;;;20.30;62.50;;;;;;5130479;27;19927;-73
2023/09/15 01:55:48;;;;;;;;;;;20.30;62.40;;;;;;5130186;27;19919;-73
2023/09/15 01:58:14;;;;;;;;;;;20.20;62.40;;;;;;5128988;28;19926;-73
2023/09/15 02:00:39;;;;;;;;;;;20.20;62.40;;;;;;5129141;28;20179;-73
2023/09/15 02:03:05;;;;;;;;;;;20.20;62.40;;;;;;5129069;28;20012;-73
2023/09/15 02:05:31;;;;;;;;;;;20.20;62.40;;;;;;5130175;27;19923;-73
2023/09/15 02:07:57;;;;;;;;;;;20.20;62.30;;;;;;5128663;28;19930;-73
2023/09/15 02:10:22;;;;;;;;;;;20.20;62.40;;;;;;5129024;28;19964;-73
2023/09/15 02:12:48;;;;;;;;;;;20.20;62.40;;;;;;5129942;27;20398;-73
2023/09/15 02:15:14;;;;;;;;;;;20.20;62.40;;;;;;5128506;28;19920;-73
2023/09/15 02:17:40;;;;;;;;;;;20.20;62.30;;;;;;5128516;28;19920;-73
2023/09/15 02:20:11;;;;;;;;;;;20.10;62.30;;;;;;5128500;28;19981;-73
2023/09/15 02:22:38;;;;;;;;;;;20.20;62.40;;;;;;5128395;28;19924;-73
2023/09/15 02:25:04;;;;;;;;;;;20.20;62.40;;;;;;5128047;28;19924;-72
2023/09/15 02:27:30;;;;;;;;;;;20.10;62.30;;;;;;5128548;28;20324;-73
2023/09/15 02:29:55;;;;;;;;;;;20.10;62.30;;;;;;5128273;28;20435;-73
2023/09/15 02:32:21;;;;;;;;;;;20.10;62.30;;;;;;5129759;27;19920;-72
2023/09/15 02:34:46;;;;;;;;;;;20.10;62.30;;;;;;5128237;28;19969;-72
2023/09/15 02:37:12;;;;;;;;;;;20.10;62.30;;;;;;5116189;28;19949;-73
2023/09/15 02:39:37;;;;;;;;;;;20.10;62.30;;;;;;5115709;27;19919;-72
2023/09/15 02:42:03;;;;;;;;;;;20.10;62.30;;;;;;5114455;28;20440;-72
2023/09/15 02:44:29;;;;;;;;;;;20.10;62.30;;;;;;5114186;28;19923;-73
2023/09/15 02:46:54;;;;;;;;;;;20.10;62.30;;;;;;5114306;28;19920;-72
2023/09/15 02:49:20;;;;;;;;;;;20.10;62.30;;;;;;5114146;28;19920;-72
2023/09/15 02:51:45;;;;;;;;;;;20.10;62.30;;;;;;5114257;28;20295;-72
2023/09/15 02:54:11;;;;;;;;;;;20.10;62.30;;;;;;5114570;28;19920;-72
2023/09/15 02:56:36;;;;;;;;;;;20.10;62.30;;;;;;5115511;28;19924;-73
2023/09/15 02:59:02;;;;;;;;;;;20.10;62.30;;;;;;5114296;28;20333;-72
2023/09/15 03:01:28;;;;;;;;;;;20.00;62.20;;;;;;5114224;28;20374;-73
2023/09/15 03:03:53;;;;;;;;;;;20.00;62.20;;;;;;5113974;28;19926;-72
2023/09/15 03:06:19;;;;;;;;;;;20.00;62.20;;;;;;5114247;28;19955;-72
2023/09/15 03:08:44;;;;;;;;;;;20.00;62.20;;;;;;5113885;28;19965;-72
2023/09/15 03:11:13;;;;;;;;;;;20.20;62.20;;;;;;5114144;28;19965;-72
2023/09/15 03:13:38;;;;;;;;;;;20.50;61.60;;;;;;5114123;28;20409;-72
2023/09/15 03:16:08;;;;;;;;;;;21.00;60.30;;;;;;5112266;28;19971;-72
2023/09/15 03:18:34;;;;;;;;;;;21.50;59.10;;;;;;5093343;28;19920;-73
2023/09/15 03:21:00;;;;;;;;;;;22.10;57.60;;;;;;5094447;28;20284;-72
2023/09/15 03:23:26;;;;;;;;;;;22.60;57.10;;;;;;5094688;28;19920;-72
2023/09/15 03:25:58;;;;;;;;;;;23.00;55.20;;;;;;5094138;28;20022;-72
2023/09/15 03:28:23;;;;;;;;;;;23.20;54.30;;;;;;5093118;28;19928;-72
2023/09/15 03:30:49;;;;;;;;;;;23.50;53.70;;;;;;5094248;28;19920;-72
2023/09/15 03:33:14;;;;;;;;;;;23.60;53.20;;;;;;5093033;28;19999;-72
2023/09/15 03:35:39;;;;;;;;;;;23.60;53.60;;;;;;5094192;28;20011;-72
2023/09/15 03:38:05;;;;;;;;;;;23.60;52.80;;;;;;5093426;28;19920;-72
2023/09/15 03:40:30;;;;;;;;;;;23.70;52.80;;;;;;5092831;28;20403;-72
2023/09/15 03:42:56;;;;;;;;;;;23.60;52.80;;;;;;5092849;28;19993;-72
2023/09/15 03:45:21;;;;;;;;;;;23.50;53.00;;;;;;5092734;28;20117;-72
2023/09/15 03:47:47;;;;;;;;;;;23.40;53.20;;;;;;5092281;28;19954;-73
2023/09/15 03:50:19;;;;;;;;;;;23.30;54.10;;;;;;5092704;28;19920;-72
2023/09/15 03:52:45;;;;;;;;;;;23.10;53.60;;;;;;5092617;28;19920;-72
2023/09/15 03:55:11;;;;;;;;;;;23.00;53.80;;;;;;5092839;28;19924;-72
2023/09/15 03:57:37;;;;;;;;;;;22.80;54.00;;;;;;5092870;28;19927;-72
2023/09/15 04:00:04;;;;;;;;;;;22.70;54.30;;;;;;5092410;28;20291;-72
2023/09/15 04:02:30;;;;;;;;;;;22.60;54.50;;;;;;5093746;28;19954;-72
2023/09/15 04:04:55;;;;;;;;;;;22.60;54.70;;;;;;5092258;28;19968;-72
2023/09/15 04:07:21;;;;;;;;;;;22.40;54.90;;;;;;5092392;28;19920;-72
2023/09/15 04:09:47;;;;;;;;;;;22.40;55.10;;;;;;5092758;28;19927;-72
2023/09/15 04:12:13;;;;;;;;;;;22.30;55.30;;;;;;5092224;28;19920;-72
2023/09/15 04:14:39;;;;;;;;;;;22.20;55.40;;;;;;5093416;28;19920;-72
2023/09/15 04:17:04;;;;;;;;;;;22.10;55.60;;;;;;5103398;28;19962;-72
2023/09/15 04:19:30;;;;;;;;;;;22.00;55.70;;;;;;5112477;28;19926;-72
2023/09/15 04:21:56;;;;;;;;;;;21.90;55.90;;;;;;5112770;28;20251;-72
2023/09/15 04:24:21;;;;;;;;;;;21.90;56.10;;;;;;5112095;28;20589;-72
2023/09/15 04:26:47;;;;;;;;;;;21.80;56.20;;;;;;5112272;28;20029;-72
2023/09/15 04:29:12;;;;;;;;;;;21.70;56.30;;;;;;5112625;28;19920;-72
2023/09/15 04:31:38;;;;;;;;;;;21.60;56.40;;;;;;5113460;28;20057;-72
2023/09/15 04:34:04;;;;;;;;;;;21.60;56.60;;;;;;5113734;28;20365;-72
2023/09/15 04:36:30;;;;;;;;;;;21.50;56.80;;;;;;5112167;28;19927;-72
2023/09/15 04:38:56;;;;;;;;;;;21.40;56.90;;;;;;5112146;28;19920;-72
2023/09/15 04:41:21;;;;;;;;;;;21.40;57.10;;;;;;5112015;28;20014;-71
2023/09/15 04:43:47;;;;;;;;;;;21.30;57.10;;;;;;5112288;28;19928;-71
2023/09/15 04:46:13;;;;;;;;;;;21.30;57.30;;;;;;5113304;28;19920;-72
2023/09/15 04:48:39;;;;;;;;;;;21.20;57.40;;;;;;5112161;28;19969;-72
2023/09/15 04:51:05;;;;;;;;;;;21.20;57.50;;;;;;5111901;28;19920;-72
2023/09/15 04:53:30;;;;;;;;;;;21.20;57.50;;;;;;5112143;28;20278;-72
2023/09/15 04:55:56;;;;;;;;;;;21.30;57.40;;;;;;5113182;28;20366;-72
2023/09/15 04:58:21;;;;;;;;;;;21.40;57.20;;;;;;5112084;28;19920;-72
2023/09/15 05:00:48;;;;;;;;;;;21.50;56.80;;;;;;5111562;28;19924;-71
2023/09/15 05:03:13;;;;;;;;;;;21.70;56.50;;;;;;5111587;28;19919;-72
2023/09/15 05:05:39;;;;;;;;;;;21.70;56.20;;;;;;5111657;28;19928;-72
2023/09/15 05:08:04;;;;;;;;;;;21.80;56.00;;;;;;5113122;28;19920;-72
2023/09/15 05:10:30;;;;;;;;;;;21.90;55.70;;;;;;5111956;28;19920;-72
2023/09/15 05:12:55;;;;;;;;;;;22.00;55.60;;;;;;5111673;28;19927;-72
2023/09/15 05:15:21;;;;;;;;;;;22.00;55.40;;;;;;5111538;28;19920;-72
2023/09/15 05:17:46;;;;;;;;;;;22.00;55.30;;;;;;5095712;28;20325;-72
2023/09/15 05:20:12;;;;;;;;;;;22.00;55.20;;;;;;5092470;28;19944;-72
2023/09/15 05:22:37;;;;;;;;;;;22.00;55.20;;;;;;5092669;28;19943;-72
2023/09/15 05:25:04;;;;;;;;;;;21.90;55.50;;;;;;5091086;28;20365;-72
2023/09/15 05:27:30;;;;;;;;;;;21.90;55.30;;;;;;5091455;28;20320;-72
2023/09/15 05:29:56;;;;;;;;;;;21.80;55.30;;;;;;5091103;28;20379;-72
2023/09/15 05:32:21;;;;;;;;;;;21.70;55.40;;;;;;5091183;28;19970;-72
2023/09/15 05:34:47;;;;;;;;;;;21.70;55.60;;;;;;5091276;28;20294;-72
2023/09/15 05:37:12;;;;;;;;;;;21.60;55.70;;;;;;5091068;28;19920;-72
2023/09/15 05:39:38;;;;;;;;;;;21.50;55.80;;;;;;5090903;28;19920;-72
2023/09/15 05:42:04;;;;;;;;;;;21.50;56.10;;;;;;5092330;28;19920;-72
2023/09/15 05:44:30;;;;;;;;;;;21.40;56.20;;;;;;5092097;28;19993;-72
2023/09/15 05:46:55;;;;;;;;;;;21.30;56.30;;;;;;5091131;28;19920;-72
2023/09/15 05:49:21;;;;;;;;;;;21.30;56.40;;;;;;5095525;28;20384;-73
2023/09/15 05:51:46;;;;;;;;;;;21.20;56.50;;;;;;5092310;28;19920;-71
2023/09/15 05:54:12;;;;;;;;;;;21.20;56.50;;;;;;5091103;28;19927;-72
2023/09/15 05:56:37;;;;;;;;;;;21.20;56.50;;;;;;5101449;28;19920;-71
2023/09/15 05:59:04;;;;;;;;;;;21.20;56.50;;;;;;5093967;28;20325;-72
2023/09/15 06:01:30;;;;;;;;;;;21.20;56.50;;;;;;5087263;28;19921;-72
2023/09/15 06:03:55;;;;;;;;;;;21.20;56.50;;;;;;5088186;28;20284;-72
2023/09/15 06:06:21;;;;;;;;;;;21.20;56.60;;;;;;5088960;28;19920;-71
2023/09/15 06:08:46;;;;;;;;;;;21.20;56.60;;;;;;5089038;28;19931;-71
2023/09/15 06:11:12;;;;;;;;;;;21.20;56.50;;;;;;5090588;28;20292;-71
2023/09/15 06:13:37;;;;;;;;;;;21.30;56.50;;;;;;5097490;28;20381;-73
2023/09/15 06:16:04;;;;;;;;;;;21.30;56.50;;;;;;5096712;28;19959;-73
2023/09/15 06:18:31;;;;;;;;;;;21.30;56.30;;;;;;5102738;28;20022;-72
2023/09/15 06:20:56;;;;;;;;;;;21.40;56.20;;;;;;5110703;28;19993;-70
2023/09/15 06:23:22;;;;;;;;;;;21.40;56.00;;;;;;5097562;28;20363;-71
2023/09/15 06:25:48;;;;;;;;;;;21.40;55.90;;;;;;5097515;28;19950;-71
2023/09/15 06:28:14;;;;;;;;;;;21.40;55.70;;;;;;5104930;28;20014;-70
2023/09/15 06:30:40;;;;;;;;;;;21.40;55.70;;;;;;5101315;28;20019;-72
2023/09/15 06:33:05;;;;;;;;;;;21.50;55.90;;;;;;5090588;28;19994;-72
2023/09/15 06:35:31;;;;;;;;;;;21.40;55.90;;;;;;5096338;28;19955;-72
2023/09/15 06:37:56;;;;;;;;;;;21.40;55.90;;;;;;5098452;28;19923;-72
2023/09/15 06:40:22;;;;;;;;;;;21.40;55.80;;;;;;5103984;28;19931;-72
2023/09/15 06:42:47;;;;;;;;;;;21.40;55.80;;;;;;5097161;28;19972;-72
2023/09/15 06:45:13;;;;;;;;;;;21.40;55.80;;;;;;5105436;28;20020;-72
2023/09/15 06:47:39;;;;;;;;;;;21.40;55.80;;;;;;5095299;28;20264;-71
2023/09/15 06:50:05;;;;;;;;;;;21.30;55.70;;;;;;5106615;28;19930;-72
2023/09/15 06:52:30;;;;;;;;;;;21.30;55.80;;;;;;5104902;28;20007;-71
2023/09/15 06:54:56;;;;;;;;;;;21.30;55.90;;;;;;5096449;28;20412;-74
2023/09/15 06:57:21;;;;;;;;;;;21.30;56.00;;;;;;5104788;28;19920;-77
2023/09/15 06:59:47;;;;;;;;;;;21.30;56.20;;;;;;5104896;28;19974;-76
2023/09/15 07:02:13;;;;;;;;;;;21.30;56.20;;;;;;5101424;28;20407;-75
2023/09/15 07:04:38;;;;;;;;;;;21.30;56.20;;;;;;5105226;28;20399;-76
2023/09/15 07:07:04;;;;;;;;;;;21.20;56.20;;;;;;5104217;28;19960;-75
2023/09/15 07:09:29;;;;;;;;;;;21.20;56.30;;;;;;5097700;28;19920;-76
2023/09/15 07:11:54;;;;;;;;;;;21.20;56.50;;;;;;5099458;28;19928;-75
2023/09/15 07:14:20;;;;;;;;;;;21.20;56.50;;;;;;5102602;28;19927;-80
2023/09/15 07:16:45;;;;;;;;;;;21.20;56.50;;;;;;5099574;28;20274;-77
2023/09/15 07:19:11;;;;;;;;;;;21.20;56.50;;;;;;5096272;28;19930;-77
2023/09/15 07:21:40;;;;;;;;;;;21.20;56.40;;;;;;5098669;28;19928;-75
2023/09/15 07:24:07;;;;;;;;;;;21.20;56.40;;;;;;5091527;28;19955;-73
2023/09/15 07:26:32;;;;;;;;;;;21.20;56.40;;;;;;5097929;28;19928;-72
2023/09/15 07:28:58;;;;;;;;;;;21.20;56.50;;;;;;5093079;28;19924;-73
2023/09/15 07:31:23;;;;;;;;;;;21.20;56.50;;;;;;5092810;28;19927;-72
2023/09/15 07:33:49;;;;;;;;;;;21.20;56.60;;;;;;5099834;28;19924;-75
2023/09/15 07:36:14;;;;;;;;;;;21.20;56.60;;;;;;5095790;28;20378;-74
2023/09/15 07:38:40;;;;;;;;;;;21.20;56.50;;;;;;5098275;28;19973;-75
2023/09/15 07:41:05;;;;;;;;;;;21.20;56.50;;;;;;5095255;28;19943;-77
2023/09/15 07:43:31;;;;;;;;;;;21.20;56.60;;;;;;5097040;28;19923;-75
2023/09/15 07:45:56;;;;;;;;;;;21.20;56.60;;;;;;5093393;28;19935;-75
2023/09/15 07:48:22;;;;;;;;;;;21.10;56.60;;;;;;5099072;28;19988;-73
2023/09/15 07:50:48;;;;;;;;;;;21.10;56.70;;;;;;5095596;28;20436;-72
2023/09/15 07:53:13;;;;;;;;;;;21.10;56.80;;;;;;5101272;28;19931;-77
2023/09/15 07:55:39;;;;;;;;;;;21.10;56.90;;;;;;5096160;28;19927;-77
2023/09/15 07:58:04;;;;;;;;;;;21.10;57.10;;;;;;5078099;28;20330;-75
2023/09/15 08:00:30;;;;;;;;;;;21.00;57.10;;;;;;5078354;28;20030;-74
2023/09/15 08:02:55;;;;;;;;;;;21.00;57.20;;;;;;5086025;28;19931;-72
2023/09/15 08:05:21;;;;;;;;;;;21.00;57.20;;;;;;5089116;28;19928;-74
2023/09/15 08:07:48;;;;;;;;;;;21.00;57.30;;;;;;5102074;28;19955;-73
2023/09/15 08:10:14;;;;;;;;;;;20.90;57.30;;;;;;5096207;28;19972;-74
2023/09/15 08:12:39;;;;;;;;;;;20.90;57.50;;;;;;5094114;28;19928;-72
2023/09/15 08:15:05;;;;;;;;;;;20.90;57.60;;;;;;5088906;28;20004;-72
2023/09/15 08:17:31;;;;;;;;;;;20.80;57.60;;;;;;5090516;28;20882;-77
2023/09/15 08:19:57;;;;;;;;;;;20.80;57.70;;;;;;5089420;28;20337;-73
2023/09/15 08:22:23;;;;;;;;;;;20.80;57.80;;;;;;5089422;28;20002;-74
2023/09/15 08:24:49;;;;;;;;;;;20.70;57.90;;;;;;5095282;28;20427;-74
2023/09/15 08:27:15;;;;;;;;;;;20.70;58.00;;;;;;5090509;28;19924;-74
2023/09/15 08:29:40;;;;;;;;;;;20.70;58.20;;;;;;5105429;28;19927;-74
2023/09/15 08:32:07;;;;;;;;;;;20.60;58.20;;;;;;5092735;28;20351;-74
2023/09/15 08:34:33;;;;;;;;;;;20.60;58.30;;;;;;5095657;28;19937;-74
2023/09/15 08:36:58;;;;;;;;;;;20.60;58.40;;;;;;5088031;28;20174;-74
2023/09/15 08:39:24;;;;;;;;;;;20.50;58.50;;;;;;5092889;28;19970;-74
2023/09/15 08:41:52;;;;;;;;;;;20.50;58.60;;;;;;5107010;28;20050;-79
2023/09/15 08:44:18;;;;;;;;;;;20.50;58.70;;;;;;5094325;28;19928;-74
2023/09/15 08:46:44;;;;;;;;;;;20.50;58.80;;;;;;5097594;28;19920;-75
2023/09/15 08:49:09;;;;;;;;;;;20.40;58.80;;;;;;5094547;28;20472;-76
2023/09/15 08:51:37;;;;;;;;;;;20.40;58.90;;;;;;5094218;28;19923;-75
2023/09/15 08:54:03;;;;;;;;;;;20.40;59.00;;;;;;5104039;28;20175;-75
2023/09/15 08:56:29;;;;;;;;;;;20.40;59.20;;;;;;5101383;28;19943;-75
2023/09/15 08:58:55;;;;;;;;;;;20.40;59.30;;;;;;5101258;28;19920;-76
2023/09/15 09:01:20;;;;;;;;;;;20.30;59.30;;;;;;5103203;28;19920;-76
2023/09/15 09:03:46;;;;;;;;;;;20.30;59.40;;;;;;5095347;28;19931;-74
2023/09/15 09:06:12;;;;;;;;;;;20.30;59.50;;;;;;5097082;28;19932;-74
2023/09/15 09:08:40;;;;;;;;;;;20.30;59.50;;;;;;5099213;28;19947;-74
2023/09/15 09:11:06;;;;;;;;;;;20.30;59.60;;;;;;5094243;28;20322;-74
2023/09/15 09:13:32;;;;;;;;;;;20.30;59.60;;;;;;5097898;28;19924;-75
2023/09/15 09:15:58;;;;;;;;;;;20.30;59.70;;;;;;5092355;28;19920;-74
2023/09/15 09:18:24;;;;;;;;;;;20.20;59.70;;;;;;5097395;28;19934;-73
2023/09/15 09:20:50;;;;;;;;;;;20.30;59.80;;;;;;5097765;28;19949;-73
2023/09/15 09:23:18;;;;;;;;;;;20.20;59.80;;;;;;5099402;28;19924;-73
2023/09/15 09:25:45;;;;;;;;;;;20.20;59.80;;;;;;5095157;28;20004;-72
2023/09/15 09:28:10;;;;;;;;;;;20.20;59.80;;;;;;5092044;28;20268;-73
2023/09/15 09:30:39;;;;;;;;;;;20.20;59.90;;;;;;5092961;28;19928;-73
2023/09/15 09:33:05;;;;;;;;;;;20.20;59.90;;;;;;5100088;28;19984;-76
2023/09/15 09:35:30;;;;;;;;;;;20.20;60.00;;;;;;5094075;28;20398;-74
2023/09/15 09:37:58;;;;;;;;;;;20.20;60.00;;;;;;5093045;28;20509;-73
2023/09/15 09:40:25;;;;;;;;;;;20.20;60.00;;;;;;5090737;28;20535;-77
2023/09/15 09:42:51;;;;;;;;;;;20.20;60.00;;;;;;5097877;28;19934;-73
2023/09/15 09:45:17;;;;;;;;;;;20.20;60.10;;;;;;5093918;28;19938;-73
2023/09/15 09:47:43;;;;;;;;;;;20.30;60.10;;;;;;5102235;28;20373;-73
2023/09/15 09:50:10;;;;;;;;;;;20.30;60.10;;;;;;5106398;28;19924;-73
2023/09/15 09:52:36;;;;;;;;;;;20.20;60.10;;;;;;5107451;28;19971;-76
2023/09/15 09:55:06;;;;;;;;;;;20.30;60.10;;;;;;5096692;28;19920;-73
2023/09/15 09:57:32;;;;;;;;;;;20.30;60.10;;;;;;5093900;28;19967;-68
2023/09/15 09:59:58;;;;;;;;;;;20.30;60.30;;;;;;5101595;28;19935;-72
2023/09/15 10:02:23;;;;;;;;;;;20.30;60.40;;;;;;5098402;28;19920;-68
2023/09/15 10:04:49;;;;;;;;;;;20.40;60.70;;;;;;5093545;28;19935;-73
2023/09/15 10:07:14;;;;;;;;;;;20.50;60.80;;;;;;5099639;28;19924;-68
2023/09/15 10:09:40;;;;;;;;;;;20.50;61.00;;;;;;5099657;28;20353;-68
2023/09/15 10:12:06;;;;;;;;;;;20.60;61.10;;;;;;5102279;28;19927;-68
2023/09/15 10:14:31;;;;;;;;;;;20.60;61.00;;;;;;5108184;28;20527;-69
2023/09/15 10:16:57;;;;;;;;;;;20.70;61.00;;;;;;5099740;28;19932;-71
2023/09/15 10:19:24;;;;;;;;;;;20.80;61.10;;;;;;5098852;28;19931;-77
2023/09/15 10:21:50;;;;;;;;;;;20.80;60.90;;;;;;5096538;28;19962;-72
2023/09/15 10:24:15;;;;;;;;;;;21.00;61.10;;;;;;5096037;28;19959;-73
2023/09/15 10:26:41;;;;;;;;;;;21.00;61.30;;;;;;5102857;28;19928;-72
2023/09/15 10:29:10;;;;;;;;;;;21.10;61.10;;;;;;5102114;28;19932;-73
2023/09/15 10:31:36;;;;;;;;;;;21.20;61.00;;;;;;5101910;28;20121;-72
2023/09/15 10:34:02;;;;;;;;;;;21.20;60.80;;;;;;5095209;28;20465;-73
2023/09/15 10:36:28;;;;;;;;;;;21.20;60.60;;;;;;5094750;27;20010;-73
2023/09/15 10:38:54;;;;;;;;;;;21.20;60.40;;;;;;5100978;28;19926;-73
2023/09/15 10:41:23;;;;;;;;;;;21.20;60.20;;;;;;5102352;28;20010;-73
2023/09/15 10:43:49;;;;;;;;;;;21.20;60.00;;;;;;5092349;28;19928;-74
2023/09/15 10:46:15;;;;;;;;;;;21.20;60.00;;;;;;5078774;28;19993;-72
2023/09/15 10:48:46;;;;;;;;;;;21.20;60.10;;;;;;5083411;28;19935;-70
2023/09/15 10:51:12;;;;;;;;;;;21.20;60.40;;;;;;5086197;28;19938;-71
2023/09/15 10:53:46;;;;;;;;;;;21.20;60.80;;;;;;5101174;28;19920;-71
2023/09/15 10:56:12;;;;;;;;;;;21.30;61.20;;;;;;5091085;28;19924;-71
2023/09/15 10:58:38;;;;;;;;;;;21.30;61.20;;;;;;5098986;28;19924;-75
2023/09/15 11:01:05;;;;;;;;;;;21.40;61.20;;;;;;5094506;28;20314;-73
2023/09/15 11:03:31;;;;;;;;;;;21.40;61.20;;;;;;5096835;28;19924;-72
2023/09/15 11:05:57;;;;;;;;;;;21.50;61.40;;;;;;5100176;28;19935;-79
2023/09/15 11:08:24;;;;;;;;;;;21.50;61.20;;;;;;5095284;28;20390;-74
2023/09/15 11:11:12;;;;;;;;;;;21.60;61.40;;;;;;5097819;28;19957;-77
2023/09/15 11:13:39;;;;;;;;;;;21.60;61.40;;;;;;5094122;28;20718;-77
2023/09/15 11:16:05;;;;;;;;;;;21.60;61.40;;;;;;5088062;28;19930;-74
2023/09/15 11:18:32;;;;;;;;;;;21.60;61.30;;;;;;5095473;28;19924;-75
2023/09/15 11:20:58;;;;;;;;;;;21.60;61.40;;;;;;5095959;28;20311;-83
2023/09/15 11:23:24;;;;;;;;;;;21.60;61.30;;;;;;5089766;28;19931;-76
2023/09/15 11:26:06;;;;;;;;;;;21.60;61.40;;;;;;5089635;28;20012;-73
2023/09/15 11:28:31;;;;;;;;;;;21.60;61.70;;;;;;5089786;28;19976;-74
2023/09/15 11:30:57;;;;;;;;;;;21.70;61.70;;;;;;5086891;28;20366;-71
2023/09/15 11:33:23;;;;;;;;;;;21.60;61.60;;;;;;5083950;28;19919;-72
2023/09/15 11:35:49;;;;;;;;;;;21.70;61.60;;;;;;5087743;28;19920;-71
2023/09/15 11:38:14;;;;;;;;;;;21.70;61.60;;;;;;5103989;28;20010;-71
2023/09/15 11:40:48;;;;;;;;;;;21.70;61.60;;;;;;5104873;28;19999;-72
2023/09/15 11:43:13;;;;;;;;;;;21.70;61.50;;;;;;5104754;28;19920;-71
2023/09/15 11:45:39;;;;;;;;;;;21.70;61.50;;;;;;5102030;28;20394;-70
2023/09/15 11:48:05;;;;;;;;;;;21.60;61.20;;;;;;5094787;28;20348;-68
2023/09/15 11:50:31;;;;;;;;;;;21.70;61.20;;;;;;5104330;28;20014;-72
2023/09/15 11:52:57;;;;;;;;;;;21.60;61.20;;;;;;5105272;28;20383;-71
2023/09/15 11:55:23;;;;;;;;;;;21.60;60.90;;;;;;5097912;28;19927;-72
2023/09/15 11:57:50;;;;;;;;;;;21.70;61.10;;;;;;5103403;28;19926;-70
2023/09/15 12:00:17;;;;;;;;;;;21.60;61.10;;;;;;5097707;28;20303;-70
2023/09/15 12:02:43;;;;;;;;;;;21.60;61.10;;;;;;5094071;28;20395;-71
2023/09/15 12:05:09;;;;;;;;;;;21.60;61.00;;;;;;5101139;28;19930;-72
2023/09/15 12:07:36;;;;;;;;;;;21.60;60.80;;;;;;5103111;28;20367;-72
2023/09/15 12:10:02;;;;;;;;;;;21.60;60.90;;;;;;5097826;28;19927;-69
2023/09/15 12:12:28;;;;;;;;;;;21.60;61.10;;;;;;5104279;28;19973;-73
2023/09/15 12:14:54;;;;;;;;;;;21.60;61.10;;;;;;5105963;28;19920;-73
2023/09/15 12:17:19;;;;;;;;;;;21.60;61.00;;;;;;5104437;28;19923;-72
2023/09/15 12:19:46;;;;;;;;;;;21.60;61.00;;;;;;5105648;28;19930;-73
2023/09/15 12:22:12;;;;;;;;;;;21.60;60.90;;;;;;5104063;28;19923;-71
2023/09/15 12:24:37;;;;;;;;;;;21.60;61.00;;;;;;5099125;28;19924;-71
2023/09/15 12:27:03;;;;;;;;;;;21.60;61.10;;;;;;5098798;28;20007;-71
2023/09/15 12:29:29;;;;;;;;;;;21.70;61.20;;;;;;5100463;28;19974;-71
2023/09/15 12:31:56;;;;;;;;;;;21.70;61.20;;;;;;5102138;28;20374;-72
2023/09/15 12:34:24;;;;;;;;;;;21.70;61.20;;;;;;5095807;28;19920;-69
2023/09/15 12:36:52;;;;;;;;;;;21.70;61.40;;;;;;5105429;28;19923;-70
2023/09/15 12:39:18;;;;;;;;;;;21.70;61.40;;;;;;5103529;28;19970;-72
2023/09/15 12:41:43;;;;;;;;;;;21.70;61.50;;;;;;5102127;28;19955;-75
2023/09/15 12:44:10;;;;;;;;;;;21.70;61.50;;;;;;5104401;28;19920;-71
2023/09/15 12:46:35;;;;;;;;;;;21.80;61.60;;;;;;5091712;28;19920;-71
2023/09/15 12:49:01;;;;;;;;;;;21.80;61.70;;;;;;5089271;28;20371;-73
2023/09/15 12:51:26;;;;;;;;;;;21.80;61.70;;;;;;5098243;28;20010;-73
2023/09/15 12:53:52;;;;;;;;;;;21.80;61.70;;;;;;5104193;28;19927;-72
2023/09/15 12:56:18;;;;;;;;;;;21.90;61.90;;;;;;5097897;28;20338;-74
2023/09/15 12:58:43;;;;;;;;;;;21.90;61.90;;;;;;5093741;28;20007;-74
2023/09/15 13:01:08;;;;;;;;;;;21.90;61.80;;;;;;5094176;28;19935;-75
2023/09/15 13:03:34;;;;;;;;;;;21.90;61.90;;;;;;5091244;28;19923;-71
2023/09/15 13:06:00;;;;;;;;;;;21.90;62.00;;;;;;5101546;28;20315;-73
2023/09/15 13:08:25;;;;;;;;;;;22.00;61.90;;;;;;5096936;28;19927;-72
2023/09/15 13:10:51;;;;;;;;;;;22.00;61.80;;;;;;5092139;28;19972;-75
2023/09/15 13:13:16;;;;;;;;;;;22.00;61.80;;;;;;5090521;28;19924;-75
2023/09/15 13:15:42;;;;;;;;;;;22.00;61.70;;;;;;5093957;28;19920;-74
2023/09/15 13:18:07;;;;;;;;;;;21.90;61.50;;;;;;5093004;28;19999;-69
2023/09/15 13:20:33;;;;;;;;;;;21.90;61.50;;;;;;5094269;28;19927;-71
2023/09/15 13:22:58;;;;;;;;;;;22.00;61.70;;;;;;5091352;28;19931;-69
2023/09/15 13:25:24;;;;;;;;;;;21.90;61.60;;;;;;5104183;28;19924;-69
2023/09/15 13:27:49;;;;;;;;;;;22.10;61.80;;;;;;5093528;28;20340;-68
2023/09/15 13:30:15;;;;;;;;;;;22.00;61.60;;;;;;5092436;28;19924;-69
2023/09/15 13:32:41;;;;;;;;;;;22.00;61.70;;;;;;5094732;28;19959;-72
2023/09/15 13:35:07;;;;;;;;;;;22.10;61.70;;;;;;5095274;28;20337;-72
2023/09/15 13:37:32;;;;;;;;;;;22.10;61.40;;;;;;5096518;28;20007;-75
2023/09/15 13:39:58;;;;;;;;;;;22.00;61.20;;;;;;5098043;28;20292;-73
2023/09/15 13:42:33;;;;;;;;;;;22.00;61.30;;;;;;5097728;28;19920;-74
2023/09/15 13:44:59;;;;;;;;;;;22.00;61.40;;;;;;5098332;28;19967;-74
2023/09/15 13:47:29;;;;;;;;;;;22.00;61.30;;;;;;5095381;28;19959;-73
2023/09/15 13:49:55;;;;;;;;;;;22.10;61.20;;;;;;5095118;28;19920;-73
2023/09/15 13:52:21;;;;;;;;;;;22.10;61.20;;;;;;5097729;28;20427;-73
2023/09/15 13:54:46;;;;;;;;;;;22.10;61.20;;;;;;5095533;28;19924;-73
2023/09/15 13:57:12;;;;;;;;;;;22.10;61.10;;;;;;5094313;28;19943;-73
2023/09/15 13:59:37;;;;;;;;;;;22.10;61.00;;;;;;5095016;28;20003;-71
2023/09/15 14:02:03;;;;;;;;;;;22.10;61.20;;;;;;5091929;28;19920;-68
2023/09/15 14:04:28;;;;;;;;;;;22.10;61.30;;;;;;5091369;28;19963;-71
2023/09/15 14:06:54;;;;;;;;;;;22.10;61.20;;;;;;5096130;28;19927;-83
2023/09/15 14:09:20;;;;;;;;;;;22.20;61.30;;;;;;5104527;28;19919;-81
2023/09/15 14:11:45;;;;;;;;;;;22.20;61.20;;;;;;5095871;28;19949;-77